Time;durP1;ratioP1;P1;durP2;ratioP2;P2;SDS_P1;SDS_P2;PMS_P1;PMS_P2;Temp;Humidity;BMP_temperature;BMP_pressure;BME280_temperature;BME280_humidity;BME280_pressure;Samples;Min_cycle;Max_cycle;Signal;HPM_P1;HPM_P2
2022/09/17 00:01:00;;;;;;;16.35;3.72;;;10.00;99.90;;;;;;5100432;28;20179;-51
2022/09/17 00:03:28;;;;;;;16.60;3.65;;;10.00;99.90;;;;;;5095980;28;20077;-51
2022/09/17 00:06:05;;;;;;;18.60;3.22;;;9.90;99.90;;;;;;5104567;27;20036;-49
2022/09/17 00:08:32;;;;;;;16.20;3.60;;;9.90;99.90;;;;;;5098495;28;20155;-52
2022/09/17 00:11:06;;;;;;;14.25;2.80;;;9.90;99.90;;;;;;5093086;28;20063;-50
2022/09/17 00:13:32;;;;;;;17.88;3.85;;;9.90;99.90;;;;;;5094255;27;20696;-50
2022/09/17 00:15:58;;;;;;;16.90;3.08;;;9.90;99.90;;;;;;5081816;28;20525;-51
2022/09/17 00:18:25;;;;;;;24.50;3.55;;;9.90;99.90;;;;;;5098347;27;20051;-52
2022/09/17 00:20:51;;;;;;;20.65;3.75;;;9.80;99.90;;;;;;5100245;28;20394;-48
2022/09/17 00:23:17;;;;;;;12.07;3.30;;;9.80;99.90;;;;;;5090974;28;20468;-49
2022/09/17 00:25:44;;;;;;;19.67;3.15;;;9.80;99.90;;;;;;5095191;27;20035;-51
2022/09/17 00:28:12;;;;;;;17.20;3.65;;;9.70;99.90;;;;;;5102635;28;20051;-40
2022/09/17 00:30:44;;;;;;;22.23;3.17;;;9.70;99.90;;;;;;5096464;28;20134;-43
2022/09/17 00:33:12;;;;;;;20.35;3.67;;;9.70;99.90;;;;;;5115997;27;20290;-41
2022/09/17 00:35:38;;;;;;;19.23;3.45;;;9.80;99.90;;;;;;5081181;28;20047;-41
2022/09/17 00:38:04;;;;;;;19.05;3.65;;;9.80;99.90;;;;;;5100120;28;20055;-43
2022/09/17 00:40:30;;;;;;;18.95;3.13;;;9.80;99.90;;;;;;5098080;28;20058;-43
2022/09/17 00:42:56;;;;;;;20.58;3.80;;;9.90;99.90;;;;;;5099811;28;20046;-40
2022/09/17 00:45:23;;;;;;;16.55;2.85;;;10.00;99.90;;;;;;5100027;28;20716;-45
2022/09/17 00:48:01;;;;;;;15.35;2.55;;;10.20;99.90;;;;;;5097557;27;20079;-48
2022/09/17 00:50:32;;;;;;;13.55;2.85;;;10.20;99.90;;;;;;5079641;28;20076;-41
2022/09/17 00:53:04;;;;;;;16.85;3.15;;;10.20;99.90;;;;;;5099619;28;20441;-39
2022/09/17 00:55:32;;;;;;;;;;;10.20;99.90;;;;;;5093664;28;20054;-41
2022/09/17 00:58:01;;;;;;;20.27;2.80;;;10.20;99.90;;;;;;5099289;28;19967;-52
2022/09/17 01:00:29;;;;;;;14.57;3.78;;;10.10;99.90;;;;;;5080641;28;20459;-49
2022/09/17 01:02:56;;;;;;;14.30;2.78;;;10.10;99.90;;;;;;5088465;28;20082;-42
2022/09/17 01:05:46;;;;;;;12.77;3.20;;;10.00;99.90;;;;;;5079143;28;20580;-40
2022/09/17 01:08:17;;;;;;;19.70;3.55;;;10.00;99.90;;;;;;5097058;27;20078;-52
2022/09/17 01:11:35;;;;;;;14.93;2.70;;;9.90;99.90;;;;;;5094067;28;20491;-48
2022/09/17 01:14:13;;;;;;;16.98;2.83;;;9.90;99.90;;;;;;5078052;28;20090;-48
2022/09/17 01:17:00;;;;;;;19.27;4.20;;;9.90;99.90;;;;;;5082021;28;20054;-48
2022/09/17 01:19:39;;;;;;;19.55;3.38;;;9.90;99.90;;;;;;5095357;27;20108;-49
2022/09/17 01:22:34;;;;;;;13.80;3.22;;;9.80;99.90;;;;;;5097902;27;20517;-48
2022/09/17 01:25:27;;;;;;;19.10;3.40;;;9.80;99.90;;;;;;5092853;28;20044;-49
2022/09/17 01:28:09;;;;;;;18.63;2.97;;;9.70;99.90;;;;;;5094199;28;20136;-40
2022/09/17 01:30:51;;;;;;;16.75;3.60;;;9.70;99.90;;;;;;5058223;28;20055;-40
2022/09/17 01:33:29;;;;;;;16.27;3.25;;;9.60;99.90;;;;;;5098075;28;20368;-42
2022/09/17 01:36:16;;;;;;;16.25;2.75;;;9.60;99.90;;;;;;5098185;28;20045;-42
2022/09/17 01:39:01;;;;;;;14.75;3.17;;;9.70;99.90;;;;;;5078322;28;20450;-41
2022/09/17 01:41:34;;;;;;;15.63;2.88;;;9.70;99.90;;;;;;5105347;27;20059;-41
2022/09/17 01:44:09;;;;;;;16.83;3.50;;;9.70;99.90;;;;;;5086840;28;20043;-42
2022/09/17 01:46:48;;;;;;;15.90;3.38;;;9.70;99.90;;;;;;5081602;28;20263;-40
2022/09/17 01:49:15;;;;;;;16.77;2.80;;;9.70;99.90;;;;;;5097140;28;20047;-41
2022/09/17 01:51:47;;;;;;;13.45;2.88;;;9.70;99.90;;;;;;5098770;27;20050;-42
2022/09/17 01:54:36;;;;;;;16.77;3.35;;;9.70;99.90;;;;;;5086463;27;20052;-41
2022/09/17 01:57:13;;;;;;;15.10;3.20;;;9.70;99.90;;;;;;5096492;28;20366;-40
2022/09/17 01:59:44;;;;;;;19.27;3.13;;;9.70;99.90;;;;;;5096916;27;20094;-41
2022/09/17 02:02:15;;;;;;;12.98;2.75;;;9.80;99.90;;;;;;5092729;28;20040;-41
2022/09/17 02:04:57;;;;;;;22.88;3.85;;;9.80;99.90;;;;;;5095903;27;20373;-42
2022/09/17 02:07:24;;;;;;;16.02;2.72;;;9.80;99.90;;;;;;5096647;28;20058;-41
2022/09/17 02:10:11;;;;;;;11.95;2.75;;;9.80;99.90;;;;;;5098718;28;20104;-41
2022/09/17 02:12:45;;;;;;;12.98;3.55;;;9.80;99.90;;;;;;5097460;28;20268;-40
2022/09/17 02:15:21;;;;;;;18.60;2.60;;;9.70;99.90;;;;;;5096250;28;20060;-43
2022/09/17 02:17:55;;;;;;;15.35;2.70;;;9.70;99.90;;;;;;5087426;28;20079;-40
2022/09/17 02:20:34;;;;;;;16.17;3.58;;;9.70;99.90;;;;;;5089125;28;20480;-49
2022/09/17 02:23:06;;;;;;;13.98;2.35;;;9.70;99.90;;;;;;5096616;28;20047;-48
2022/09/17 02:25:38;;;;;;;14.35;3.47;;;9.80;99.90;;;;;;5089632;28;20624;-50
2022/09/17 02:28:15;;;;;;;21.30;3.27;;;9.80;99.90;;;;;;5078631;28;20065;-49
2022/09/17 02:30:41;;;;;;;14.52;2.45;;;9.80;99.90;;;;;;5075242;28;20841;-48
2022/09/17 02:33:11;;;;;;;18.27;3.45;;;9.80;99.90;;;;;;5099015;28;20079;-49
2022/09/17 02:35:38;;;;;;;20.50;3.13;;;9.80;99.90;;;;;;5091510;28;20048;-42
2022/09/17 02:38:04;;;;;;;17.02;2.95;;;9.80;99.90;;;;;;5090329;28;20118;-40
2022/09/17 02:40:54;;;;;;;15.45;2.50;;;9.90;99.90;;;;;;5098290;27;20558;-52
2022/09/17 02:43:26;;;;;;;13.07;2.88;;;9.90;99.90;;;;;;5094920;28;20534;-49
2022/09/17 02:46:15;;;;;;;15.15;2.30;;;9.90;99.90;;;;;;5078441;28;20043;-49
2022/09/17 02:49:13;;;;;;;14.63;2.83;;;9.90;99.90;;;;;;5095940;28;20048;-52
2022/09/17 02:51:58;;;;;;;14.63;2.80;;;10.00;99.90;;;;;;5095412;28;20056;-48
2022/09/17 02:54:30;;;;;;;16.00;2.72;;;10.00;99.90;;;;;;5097406;28;20455;-47
2022/09/17 02:57:20;;;;;;;15.75;3.15;;;10.10;99.90;;;;;;5091074;28;20591;-48
2022/09/17 02:59:57;;;;;;;15.90;2.95;;;10.10;99.90;;;;;;5114748;27;20054;-48
2022/09/17 03:02:38;;;;;;;13.18;3.10;;;10.20;99.90;;;;;;5100969;27;20044;-42
2022/09/17 03:05:07;;;;;;;14.63;3.05;;;10.20;99.90;;;;;;5097157;28;20039;-42
2022/09/17 03:07:33;;;;;;;15.95;2.90;;;10.30;99.90;;;;;;5095747;28;20083;-41
2022/09/17 03:09:59;;;;;;;16.60;2.55;;;10.30;99.90;;;;;;5078815;28;20044;-40
2022/09/17 03:12:26;;;;;;;13.43;2.50;;;10.30;99.90;;;;;;5048875;28;20039;-41
2022/09/17 03:14:52;;;;;;;12.95;2.42;;;10.20;99.90;;;;;;5094071;28;20641;-48
2022/09/17 03:17:18;;;;;;;10.80;2.28;;;10.10;99.90;;;;;;5079226;28;20056;-43
2022/09/17 03:19:45;;;;;;;16.83;2.67;;;10.10;99.90;;;;;;5071068;28;20112;-41
2022/09/17 03:22:11;;;;;;;10.57;2.30;;;10.00;99.90;;;;;;5057777;28;20086;-41
2022/09/17 03:24:37;;;;;;;12.45;1.95;;;9.90;99.90;;;;;;5096658;28;20051;-48
2022/09/17 03:27:03;;;;;;;11.50;2.30;;;9.90;99.90;;;;;;5099059;27;20099;-52
2022/09/17 03:29:29;;;;;;;12.23;2.10;;;9.90;99.90;;;;;;5072308;28;20127;-50
2022/09/17 03:31:56;;;;;;;11.73;2.70;;;9.80;99.90;;;;;;5095078;28;20075;-48
2022/09/17 03:34:22;;;;;;;10.25;2.00;;;9.80;99.90;;;;;;5095797;28;20669;-49
2022/09/17 03:36:48;;;;;;;9.23;2.17;;;9.80;99.90;;;;;;5093145;28;20047;-47
2022/09/17 03:39:15;;;;;;;13.27;2.40;;;9.80;99.90;;;;;;5094836;28;20510;-49
2022/09/17 03:41:41;;;;;;;12.10;2.42;;;9.80;99.90;;;;;;5095175;28;20118;-42
2022/09/17 03:44:09;;;;;;;9.25;2.17;;;9.80;99.90;;;;;;5081257;28;20039;-42
2022/09/17 03:46:36;;;;;;;14.15;2.35;;;9.80;99.90;;;;;;5083722;28;20066;-49
2022/09/17 03:49:02;;;;;;;10.13;2.13;;;9.80;99.90;;;;;;5091400;28;20058;-50
2022/09/17 03:51:28;;;;;;;13.32;2.90;;;9.80;99.90;;;;;;5080225;28;20044;-41
2022/09/17 03:53:54;;;;;;;11.40;1.83;;;9.70;99.90;;;;;;5086758;28;20044;-40
2022/09/17 03:56:20;;;;;;;11.13;2.00;;;9.60;99.90;;;;;;5095538;28;20612;-41
2022/09/17 03:58:47;;;;;;;8.05;1.73;;;9.60;99.90;;;;;;5094601;28;20122;-42
2022/09/17 04:01:13;;;;;;;8.75;1.90;;;9.50;99.90;;;;;;5075900;28;20131;-41
2022/09/17 04:03:39;;;;;;;14.20;2.30;;;9.50;99.90;;;;;;5066918;28;20036;-40
2022/09/17 04:06:06;;;;;;;14.63;2.42;;;9.50;99.90;;;;;;5088789;28;21232;-40
2022/09/17 04:08:32;;;;;;;9.10;2.42;;;9.50;99.90;;;;;;5095678;28;20108;-41
2022/09/17 04:10:58;;;;;;;9.82;2.00;;;9.60;99.90;;;;;;5082521;28;20422;-41
2022/09/17 04:13:25;;;;;;;10.63;1.88;;;9.50;99.90;;;;;;5096479;28;20251;-43
2022/09/17 04:15:51;;;;;;;13.88;2.30;;;9.60;99.90;;;;;;5094606;28;20525;-40
2022/09/17 04:18:17;;;;;;;12.57;2.13;;;9.70;99.90;;;;;;5077442;28;20434;-42
2022/09/17 04:20:43;;;;;;;13.23;2.85;;;9.70;99.90;;;;;;5095193;28;20521;-41
2022/09/17 04:23:11;;;;;;;11.90;2.50;;;9.80;99.90;;;;;;5081248;28;20051;-42
2022/09/17 04:25:37;;;;;;;13.82;2.13;;;9.70;99.90;;;;;;5095337;28;20044;-41
2022/09/17 04:28:04;;;;;;;10.77;2.58;;;9.60;99.90;;;;;;5097366;28;20562;-49
2022/09/17 04:30:30;;;;;;;12.57;2.20;;;9.70;99.90;;;;;;5097902;28;20047;-53
2022/09/17 04:32:56;;;;;;;8.85;1.67;;;9.70;99.90;;;;;;5078645;28;20086;-51
2022/09/17 04:35:22;;;;;;;11.73;2.30;;;9.70;99.90;;;;;;5094052;28;20453;-49
2022/09/17 04:37:56;;;;;;;15.10;2.63;;;9.70;99.90;;;;;;5077507;28;20051;-40
2022/09/17 04:40:24;;;;;;;8.70;2.17;;;9.70;99.90;;;;;;5095917;28;20055;-48
2022/09/17 04:42:58;;;;;;;18.30;2.53;;;9.70;99.90;;;;;;5095536;28;20498;-40
2022/09/17 04:45:25;;;;;;;16.77;3.10;;;9.70;99.90;;;;;;5099976;28;20136;-39
2022/09/17 04:47:51;;;;;;;12.02;2.22;;;9.70;99.90;;;;;;5101024;28;20050;-40
2022/09/17 04:50:18;;;;;;;19.20;2.58;;;9.80;99.90;;;;;;5079503;28;20039;-40
2022/09/17 04:52:44;;;;;;;18.42;3.78;;;9.90;99.90;;;;;;5099842;28;20044;-53
2022/09/17 04:55:11;;;;;;;14.80;2.28;;;9.90;99.90;;;;;;5098241;27;20215;-50
2022/09/17 04:57:38;;;;;;;8.50;2.03;;;9.90;99.90;;;;;;5079002;28;20040;-53
2022/09/17 05:00:09;;;;;;;14.10;2.40;;;9.90;99.90;;;;;;5076917;28;20537;-49
2022/09/17 05:02:35;;;;;;;12.70;2.20;;;9.90;99.90;;;;;;5095684;28;20806;-52
2022/09/17 05:05:01;;;;;;;14.20;3.13;;;9.90;99.90;;;;;;5095029;28;20487;-48
2022/09/17 05:07:27;;;;;;;11.68;2.22;;;9.80;99.90;;;;;;5057807;28;20047;-50
2022/09/17 05:09:53;;;;;;;12.60;2.35;;;9.80;99.90;;;;;;5062265;28;20454;-47
2022/09/17 05:12:20;;;;;;;10.98;2.28;;;9.80;99.90;;;;;;5096236;28;20358;-41
2022/09/17 05:14:46;;;;;;;9.43;1.90;;;9.70;99.90;;;;;;5092455;27;20082;-41
2022/09/17 05:17:12;;;;;;;10.40;2.55;;;9.70;99.90;;;;;;5079982;28;20083;-38
2022/09/17 05:19:38;;;;;;;13.88;2.85;;;9.70;99.90;;;;;;5088189;28;20040;-41
2022/09/17 05:22:05;;;;;;;15.15;2.47;;;9.80;99.90;;;;;;5099793;28;20039;-40
2022/09/17 05:24:31;;;;;;;10.13;2.20;;;9.80;99.90;;;;;;5081641;28;20040;-41
2022/09/17 05:26:57;;;;;;;13.07;2.03;;;9.80;99.90;;;;;;5100401;28;20154;-40
2022/09/17 05:29:23;;;;;;;11.77;2.33;;;9.80;99.90;;;;;;5102772;27;20456;-40
2022/09/17 05:31:50;;;;;;;13.23;2.47;;;9.70;99.90;;;;;;5097884;28;20051;-52
2022/09/17 05:34:16;;;;;;;11.40;2.25;;;9.70;99.90;;;;;;5100979;27;20066;-50
2022/09/17 05:36:42;;;;;;;11.98;2.00;;;9.70;99.90;;;;;;5098317;28;20048;-48
2022/09/17 05:39:08;;;;;;;11.70;1.70;;;9.70;99.90;;;;;;5074589;28;20047;-51
2022/09/17 05:41:34;;;;;;;7.90;1.63;;;9.80;99.90;;;;;;5097128;28;20058;-39
2022/09/17 05:44:00;;;;;;;11.73;2.30;;;9.80;99.90;;;;;;5082517;28;20414;-51
2022/09/17 05:46:26;;;;;;;10.07;1.77;;;9.90;99.90;;;;;;5077082;28;20125;-48
2022/09/17 05:48:55;;;;;;;9.73;1.73;;;9.90;99.90;;;;;;5092519;28;20320;-50
2022/09/17 05:51:21;;;;;;;10.15;2.45;;;9.90;99.90;;;;;;5100775;28;20051;-49
2022/09/17 05:53:48;;;;;;;16.77;1.75;;;9.90;99.90;;;;;;5098371;28;20100;-52
2022/09/17 05:56:14;;;;;;;12.63;2.17;;;10.00;99.90;;;;;;5098356;27;20405;-49
2022/09/17 05:58:40;;;;;;;11.15;2.40;;;10.00;99.90;;;;;;5096458;28;20067;-49
2022/09/17 06:01:06;;;;;;;9.25;2.30;;;10.00;99.90;;;;;;5080239;28;20499;-53
2022/09/17 06:03:33;;;;;;;12.25;1.88;;;9.90;99.90;;;;;;5101048;28;20114;-49
2022/09/17 06:05:59;;;;;;;11.82;2.13;;;10.00;99.90;;;;;;5099964;27;20381;-48
2022/09/17 06:08:27;;;;;;;15.05;2.30;;;9.90;99.90;;;;;;5082010;28;20387;-50
2022/09/17 06:10:54;;;;;;;10.10;1.77;;;9.90;99.90;;;;;;5095359;28;20051;-51
2022/09/17 06:13:20;;;;;;;8.85;1.90;;;9.90;99.90;;;;;;5100249;28;20086;-51
2022/09/17 06:15:52;;;;;;;9.55;2.28;;;9.90;99.90;;;;;;5081586;28;20058;-48
2022/09/17 06:18:18;;;;;;;14.18;2.05;;;10.00;99.90;;;;;;5099994;28;20382;-50
2022/09/17 06:20:57;;;;;;;16.77;2.70;;;10.00;99.90;;;;;;5083412;28;20365;-49
2022/09/17 06:23:24;;;;;;;10.10;1.60;;;10.10;99.90;;;;;;5101459;28;20581;-48
2022/09/17 06:25:58;;;;;;;9.85;1.83;;;10.00;99.90;;;;;;5066373;27;20093;-48
2022/09/17 06:28:25;;;;;;;10.63;2.10;;;9.90;99.90;;;;;;5082695;28;20550;-49
2022/09/17 06:30:53;;;;;;;11.55;2.00;;;9.90;99.90;;;;;;5098154;28;20051;-51
2022/09/17 06:33:20;;;;;;;11.65;2.17;;;9.80;99.90;;;;;;5079910;28;20040;-41
2022/09/17 06:35:46;;;;;;;8.85;1.70;;;9.80;99.90;;;;;;5113891;27;20154;-50
2022/09/17 06:38:13;;;;;;;12.07;2.13;;;9.90;99.90;;;;;;5099430;28;20047;-51
2022/09/17 06:40:39;;;;;;;7.97;1.95;;;10.00;99.90;;;;;;5074508;28;20048;-53
2022/09/17 06:43:05;;;;;;;6.57;1.55;;;10.20;99.90;;;;;;5098646;28;20414;-49
2022/09/17 06:45:31;;;;;;;8.25;2.10;;;10.50;99.90;;;;;;5101745;27;20040;-51
2022/09/17 06:48:02;;;;;;;8.93;1.98;;;10.70;99.90;;;;;;5096374;28;20043;-52
2022/09/17 06:50:28;;;;;;;9.77;2.20;;;10.80;99.90;;;;;;5097818;28;20162;-49
2022/09/17 06:52:54;;;;;;;12.43;2.70;;;10.80;99.90;;;;;;5096492;27;20495;-52
2022/09/17 06:55:20;;;;;;;10.23;2.15;;;10.80;99.90;;;;;;5073805;27;20048;-40
2022/09/17 06:57:47;;;;;;;12.25;1.98;;;10.70;99.90;;;;;;5082397;28;20035;-42
2022/09/17 07:00:14;;;;;;;8.38;1.90;;;10.60;99.90;;;;;;5095600;28;20569;-42
2022/09/17 07:02:40;;;;;;;9.20;1.77;;;10.60;99.90;;;;;;5081437;28;20040;-41
2022/09/17 07:05:07;;;;;;;8.57;1.58;;;10.50;99.90;;;;;;5097048;28;20503;-50
2022/09/17 07:07:34;;;;;;;9.65;1.70;;;10.40;99.90;;;;;;5097231;27;20489;-50
2022/09/17 07:10:01;;;;;;;9.77;1.60;;;10.50;99.90;;;;;;5083289;28;20047;-51
2022/09/17 07:12:27;;;;;;;7.55;1.90;;;10.80;99.90;;;;;;5100794;28;20069;-50
2022/09/17 07:14:53;;;;;;;6.60;1.90;;;11.30;99.90;;;;;;5078778;28;20055;-51
2022/09/17 07:17:20;;;;;;;8.50;1.88;;;11.70;99.90;;;;;;5097720;28;20040;-50
2022/09/17 07:19:46;;;;;;;8.75;2.03;;;11.90;99.90;;;;;;5067772;28;20044;-49
2022/09/17 07:22:13;;;;;;;10.50;2.13;;;12.10;99.90;;;;;;5097102;28;20051;-50
2022/09/17 07:24:39;;;;;;;11.07;1.77;;;12.40;99.90;;;;;;5095888;28;20043;-52
2022/09/17 07:27:05;;;;;;;12.93;1.70;;;12.50;99.90;;;;;;5097218;28;20086;-41
2022/09/17 07:29:31;;;;;;;9.93;1.77;;;12.40;99.90;;;;;;5099904;28;20075;-41
2022/09/17 07:31:58;;;;;;;12.25;1.92;;;12.30;99.90;;;;;;5098015;28;20148;-42
2022/09/17 07:34:27;;;;;;;7.05;1.75;;;12.30;99.90;;;;;;5098195;28;20039;-51
2022/09/17 07:36:53;;;;;;;9.45;1.75;;;12.70;99.90;;;;;;5082774;28;20071;-48
2022/09/17 07:39:19;;;;;;;8.32;1.50;;;13.10;99.90;;;;;;5102186;27;20043;-49
2022/09/17 07:41:46;;;;;;;13.95;2.20;;;13.90;99.90;;;;;;5098658;28;20042;-49
2022/09/17 07:44:12;;;;;;;8.73;1.55;;;14.00;99.90;;;;;;5100650;28;20063;-48
2022/09/17 07:46:38;;;;;;;9.15;1.70;;;13.90;99.90;;;;;;5098262;28;20043;-53
2022/09/17 07:49:04;;;;;;;11.95;1.65;;;13.60;99.90;;;;;;5095461;28;20082;-49
2022/09/17 07:51:30;;;;;;;8.73;1.83;;;13.50;99.90;;;;;;5099426;28;20111;-40
2022/09/17 07:53:58;;;;;;;8.50;1.38;;;13.40;99.90;;;;;;5094922;28;20142;-49
2022/09/17 07:56:28;;;;;;;7.70;1.30;;;13.00;99.90;;;;;;5079479;28;20343;-49
2022/09/17 07:58:55;;;;;;;8.48;1.35;;;13.40;99.90;;;;;;5095016;28;20461;-50
2022/09/17 08:01:21;;;;;;;9.40;1.83;;;14.00;99.90;;;;;;5104554;28;20494;-51
2022/09/17 08:03:49;;;;;;;8.23;1.70;;;14.50;99.90;;;;;;5085413;28;20465;-49
2022/09/17 08:06:19;;;;;;;7.80;1.42;;;15.20;99.90;;;;;;5096174;28;20043;-52
2022/09/17 08:08:46;;;;;;;7.28;1.13;;;16.00;99.90;;;;;;5072402;28;20376;-51
2022/09/17 08:11:15;;;;;;;8.43;1.35;;;16.60;99.90;;;;;;5093633;28;21387;-50
2022/09/17 08:13:41;;;;;;;8.32;1.20;;;16.30;99.90;;;;;;5078442;28;20054;-42
2022/09/17 08:16:14;;;;;;;9.50;1.20;;;15.90;99.90;;;;;;5092157;28;20043;-43
2022/09/17 08:18:42;;;;;;;9.80;1.50;;;14.90;99.90;;;;;;5095271;28;20602;-41
2022/09/17 08:21:17;;;;;;;5.45;1.10;;;14.20;99.90;;;;;;5098289;27;20815;-41
2022/09/17 08:23:44;;;;;;;7.32;1.15;;;13.50;99.90;;;;;;5099950;28;20051;-41
2022/09/17 08:26:17;;;;;;;4.75;1.40;;;13.20;99.90;;;;;;5100345;28;20660;-41
2022/09/17 08:28:57;;;;;;;6.47;1.05;;;13.10;99.90;;;;;;5096138;27;20044;-41
2022/09/17 08:31:29;;;;;;;8.02;1.50;;;13.10;99.90;;;;;;5095707;27;20277;-41
2022/09/17 08:33:55;;;;;;;4.55;1.23;;;13.70;99.90;;;;;;5094206;28;20592;-44
2022/09/17 08:36:23;;;;;;;6.35;1.38;;;13.90;99.90;;;;;;5099104;27;20043;-40
2022/09/17 08:38:52;;;;;;;6.35;0.93;;;14.40;99.90;;;;;;5094130;28;20055;-41
2022/09/17 08:41:24;;;;;;;5.45;1.05;;;14.30;99.90;;;;;;5077352;28;20503;-42
2022/09/17 08:44:03;;;;;;;8.85;1.67;;;14.00;99.90;;;;;;5098788;28;20568;-50
2022/09/17 08:46:40;;;;;;;5.75;1.15;;;13.60;99.90;;;;;;5097339;27;20044;-51
2022/09/17 08:49:15;;;;;;;7.45;1.35;;;13.40;99.90;;;;;;5091537;28;20040;-50
2022/09/17 08:51:52;;;;;;;5.82;1.25;;;13.40;99.90;;;;;;5099803;28;20475;-53
2022/09/17 08:54:26;;;;;;;9.52;1.40;;;13.50;99.90;;;;;;5094776;27;20058;-51
2022/09/17 08:57:19;;;;;;;6.13;1.38;;;13.50;99.90;;;;;;5095364;28;20055;-50
2022/09/17 09:00:00;;;;;;;4.85;1.20;;;13.50;99.90;;;;;;5096784;28;20330;-42
2022/09/17 09:02:48;;;;;;;7.13;1.10;;;14.20;99.90;;;;;;5081761;28;20043;-48
2022/09/17 09:05:25;;;;;;;7.90;1.20;;;14.60;99.90;;;;;;5094872;27;20039;-49
2022/09/17 09:08:04;;;;;;;9.70;1.40;;;14.80;99.90;;;;;;5097370;27;20496;-41
2022/09/17 09:10:54;;;;;;;3.67;1.10;;;15.50;99.90;;;;;;5101561;28;20039;-51
2022/09/17 09:13:24;;;;;;;6.57;1.50;;;16.40;99.90;;;;;;5094543;28;21008;-41
2022/09/17 09:16:01;;;;;;;9.20;1.23;;;17.30;99.90;;;;;;5080279;28;20035;-49
2022/09/17 09:18:34;;;;;;;4.47;1.40;;;17.60;99.90;;;;;;5094782;28;20079;-52
2022/09/17 09:21:19;;;;;;;5.85;1.00;;;17.70;99.90;;;;;;5096108;28;20558;-43
2022/09/17 09:24:01;;;;;;;7.57;1.48;;;18.30;99.90;;;;;;5096168;28;20035;-41
2022/09/17 09:26:52;;;;;;;4.30;0.80;;;18.20;99.90;;;;;;5078796;28;20144;-53
2022/09/17 09:29:43;;;;;;;2.42;0.70;;;18.20;99.90;;;;;;5076430;28;20099;-52
2022/09/17 09:32:47;;;;;;;3.20;1.00;;;17.50;99.90;;;;;;5097083;28;20466;-51
2022/09/17 09:35:23;;;;;;;5.72;1.05;;;16.70;99.90;;;;;;5070536;28;20238;-42
2022/09/17 09:38:27;;;;;;;5.60;0.98;;;16.20;99.90;;;;;;5063888;28;20307;-42
2022/09/17 09:40:59;;;;;;;7.50;1.48;;;15.60;99.90;;;;;;5093600;28;20043;-45
2022/09/17 09:43:45;;;;;;;4.32;1.02;;;16.20;99.90;;;;;;5097196;28;20050;-43
2022/09/17 09:46:14;;;;;;;4.50;1.20;;;16.60;99.90;;;;;;5094668;28;20051;-44
2022/09/17 09:49:11;;;;;;;5.43;1.50;;;17.30;99.90;;;;;;5094738;27;20040;-45
2022/09/17 09:52:03;;;;;;;6.13;1.30;;;17.50;99.90;;;;;;5091305;27;20581;-43
2022/09/17 09:54:56;;;;;;;5.53;0.98;;;16.70;99.90;;;;;;5062778;28;20567;-42
2022/09/17 09:57:47;;;;;;;6.13;1.00;;;15.70;99.90;;;;;;5098574;28;20075;-43
2022/09/17 10:00:29;;;;;;;5.28;0.90;;;16.80;99.90;;;;;;5060508;28;20530;-43
2022/09/17 10:03:21;;;;;;;5.20;0.90;;;17.70;99.90;;;;;;5098908;28;20405;-42
2022/09/17 10:06:08;;;;;;;6.05;1.15;;;17.10;99.90;;;;;;5077693;28;20096;-51
2022/09/17 10:08:37;;;;;;;4.57;0.80;;;17.90;99.90;;;;;;5098154;28;20120;-42
2022/09/17 10:11:11;;;;;;;7.13;1.20;;;17.50;99.90;;;;;;5091300;27;20053;-42
2022/09/17 10:13:38;;;;;;;4.93;1.08;;;16.50;99.90;;;;;;5096215;28;20453;-40
2022/09/17 10:16:23;;;;;;;3.75;0.90;;;15.60;99.90;;;;;;5096363;28;20044;-43
2022/09/17 10:19:09;;;;;;;2.97;1.20;;;15.00;99.90;;;;;;5092434;28;20066;-53
2022/09/17 10:21:41;;;;;;;7.22;1.45;;;15.60;99.90;;;;;;5090357;27;20120;-43
2022/09/17 10:24:22;;;;;;;4.95;0.98;;;16.20;99.90;;;;;;5092683;28;20047;-42
2022/09/17 10:26:49;;;;;;;5.07;1.73;;;16.60;99.90;;;;;;5091620;28;20136;-39
2022/09/17 10:29:17;;;;;;;11.20;6.50;;;17.00;99.90;;;;;;5094151;28;20039;-40
2022/09/17 10:31:52;;;;;;;6.95;2.10;;;17.80;99.90;;;;;;5096460;28;20087;-45
2022/09/17 10:34:27;;;;;;;6.63;1.23;;;18.70;99.90;;;;;;5093543;27;20104;-40
2022/09/17 10:36:56;;;;;;;5.03;1.23;;;18.30;99.90;;;;;;5089624;27;20535;-40
2022/09/17 10:39:31;;;;;;;6.68;2.08;;;17.00;99.90;;;;;;5095802;28;20397;-59
2022/09/17 10:42:00;;;;;;;6.55;1.30;;;16.50;99.90;;;;;;5095289;28;20505;-57
2022/09/17 10:44:29;;;;;;;9.52;2.03;;;15.80;99.90;;;;;;5092858;28;20078;-57
2022/09/17 10:47:12;;;;;;;5.25;1.05;;;15.90;99.90;;;;;;5093653;28;20050;-58
2022/09/17 10:50:07;;;;;;;4.18;0.95;;;16.60;99.90;;;;;;5076843;28;20086;-58
2022/09/17 10:52:45;;;;;;;4.10;1.00;;;17.60;99.90;;;;;;5093136;28;20055;-58
2022/09/17 10:55:34;;;;;;;3.95;0.82;;;17.90;99.90;;;;;;5093743;28;20051;-58
2022/09/17 10:58:06;;;;;;;7.20;1.40;;;19.20;99.90;;;;;;5094799;27;20067;-58
2022/09/17 11:00:38;;;;;;;5.50;1.20;;;19.60;99.90;;;;;;5094775;28;20066;-58
2022/09/17 11:03:38;;;;;;;7.63;2.90;;;20.20;99.90;;;;;;5095425;28;20035;-58
2022/09/17 11:06:52;;;;;;;12.65;6.70;;;20.00;99.90;;;;;;5093042;28;21005;-59
2022/09/17 11:09:47;;;;;;;6.50;1.15;;;20.50;99.90;;;;;;5088160;27;20464;-60
2022/09/17 11:12:31;;;;;;;6.63;1.25;;;21.10;99.90;;;;;;5088871;28;20333;-58
2022/09/17 11:15:12;;;;;;;8.45;2.47;;;21.40;99.90;;;;;;5091672;28;20075;-58
2022/09/17 11:17:45;;;;;;;8.85;2.10;;;20.70;99.90;;;;;;5091329;28;21063;-58
2022/09/17 11:20:24;;;;;;;8.50;1.67;;;20.20;99.90;;;;;;5090804;28;20487;-58
2022/09/17 11:23:21;;;;;;;9.35;2.00;;;18.90;99.90;;;;;;5086946;28;20117;-58
2022/09/17 11:25:54;;;;;;;7.35;1.35;;;15.70;99.90;;;;;;5091956;28;20075;-58
2022/09/17 11:29:03;;;;;;;8.30;1.63;;;14.30;99.90;;;;;;5090226;28;20561;-58
2022/09/17 11:31:41;;;;;;;7.57;1.20;;;13.60;99.90;;;;;;5072514;28;20062;-60
2022/09/17 11:34:25;;;;;;;5.32;1.10;;;13.00;99.90;;;;;;5091238;28;20046;-59
2022/09/17 11:37:04;;;;;;;8.13;1.23;;;12.80;99.90;;;;;;5092043;28;20351;-57
2022/09/17 11:39:42;;;;;;;6.15;1.60;;;13.20;99.90;;;;;;5094133;28;20143;-58
2022/09/17 11:42:15;;;;;;;8.55;1.33;;;13.10;99.90;;;;;;5073204;28;20047;-56
2022/09/17 11:44:52;;;;;;;4.80;1.20;;;13.00;99.90;;;;;;5092951;28;20131;-58
2022/09/17 11:47:49;;;;;;;7.28;1.27;;;13.00;99.90;;;;;;5092346;28;20044;-56
2022/09/17 11:50:44;;;;;;;6.35;1.30;;;13.50;99.90;;;;;;5089056;28;20604;-42
2022/09/17 11:53:51;;;;;;;6.13;1.20;;;14.30;99.90;;;;;;5070144;28;20044;-43
2022/09/17 11:56:33;;;;;;;5.47;1.50;;;14.40;99.90;;;;;;5091578;28;20043;-41
2022/09/17 11:59:14;;;;;;;5.97;1.10;;;14.30;99.90;;;;;;5092058;28;20510;-54
2022/09/17 12:01:47;;;;;;;6.85;1.10;;;14.60;99.90;;;;;;5091403;28;20054;-56
2022/09/17 12:04:22;;;;;;;8.25;1.70;;;15.00;99.90;;;;;;5078422;28;20058;-57
2022/09/17 12:07:01;;;;;;;6.47;1.50;;;15.10;99.90;;;;;;5091271;28;20057;-58
2022/09/17 12:09:33;;;;;;;5.20;1.45;;;14.50;99.90;;;;;;5091105;28;20059;-55
2022/09/17 12:12:02;;;;;;;6.85;1.35;;;14.20;99.90;;;;;;5071086;28;20051;-55
2022/09/17 12:14:57;;;;;;;4.55;0.90;;;15.40;99.90;;;;;;5083961;28;20056;-42
2022/09/17 12:17:30;;;;;;;4.95;1.10;;;16.50;99.90;;;;;;5088147;28;20066;-41
2022/09/17 12:20:17;;;;;;;4.57;1.05;;;16.70;99.90;;;;;;5090718;28;20466;-40
2022/09/17 12:22:45;;;;;;;8.20;1.30;;;16.80;99.90;;;;;;5094103;28;20810;-42
2022/09/17 12:25:12;;;;;;;9.60;1.40;;;16.30;99.90;;;;;;5073309;28;20104;-42
2022/09/17 12:27:58;;;;;;;9.18;1.80;;;15.70;99.90;;;;;;5095300;28;20086;-42
2022/09/17 12:30:56;;;;;;;9.85;1.92;;;15.00;99.90;;;;;;5094708;28;20058;-41
2022/09/17 12:33:44;;;;;;;5.90;1.40;;;14.80;99.90;;;;;;5093898;28;20040;-42
2022/09/17 12:36:25;;;;;;;9.07;2.33;;;14.60;99.90;;;;;;5082674;28;20074;-41
2022/09/17 12:39:27;;;;;;;8.55;1.92;;;14.60;99.90;;;;;;5087327;28;20368;-42
2022/09/17 12:42:05;;;;;;;7.72;1.70;;;15.20;99.90;;;;;;5075219;28;20055;-55
2022/09/17 12:45:07;;;;;;;8.35;2.70;;;16.70;99.90;;;;;;5097976;28;20458;-54
2022/09/17 12:47:44;;;;;;;9.00;1.45;;;18.10;99.90;;;;;;5078674;28;20382;-49
2022/09/17 12:50:48;;;;;;;10.20;2.05;;;18.80;99.90;;;;;;5078407;28;20039;-54
2022/09/17 12:53:36;;;;;;;12.65;2.13;;;19.20;99.90;;;;;;5077567;28;20048;-43
2022/09/17 12:56:16;;;;;;;8.18;1.95;;;19.40;99.90;;;;;;5059956;28;20050;-53
2022/09/17 12:59:09;;;;;;;8.35;1.88;;;18.80;99.90;;;;;;5074045;28;20043;-53
2022/09/17 13:02:03;;;;;;;7.47;1.70;;;17.30;99.90;;;;;;5090888;28;20063;-43
2022/09/17 13:05:03;;;;;;;8.80;1.63;;;16.40;99.90;;;;;;5071241;28;20090;-43
2022/09/17 13:07:58;;;;;;;7.32;1.77;;;15.70;99.90;;;;;;5062579;28;20071;-42
2022/09/17 13:10:30;;;;;;;10.38;1.58;;;16.60;99.90;;;;;;5080554;28;20470;-43
2022/09/17 13:13:09;;;;;;;9.65;1.83;;;17.70;99.90;;;;;;5092885;28;20051;-44
2022/09/17 13:15:47;;;;;;;8.77;2.35;;;18.80;99.90;;;;;;5095805;28;20458;-46
2022/09/17 13:18:30;;;;;;;7.90;1.90;;;19.60;99.90;;;;;;5089506;27;20054;-54
2022/09/17 13:21:13;;;;;;;6.70;1.75;;;20.30;99.90;;;;;;5097137;28;20422;-52